Aviation Digital Data Service (ADDS)

Output produced by METARs form (1826 UTC 22 November 2017)
found at http://www.aviationweather.gov/adds/metars/
 
TAF MTCH 221700Z 2218/2318 VRB02KT 9999 FEW025 
     BECMG 2218/2222 36006KT 
     PROB30 
     TEMPO 2300/2304 4800 SHRA SCT022 BKN040 
     BECMG 2306/2310 VRB02KT 8000 FEW016 
     FM231200 04005KT 9000 FEW016
       
TAF MTPP 221700Z 2218/2318 09012KT 9000 FEW026 
     FM221900 30008KT 8000 FEW030 
     PROB30 
     TEMPO 2300/2306 4800 -TSRA FEW014CB SCT030 
     BECMG 2308/2310 VRB02KT 7000 NSW FEW018 
     TEMPO 2312/2316 10012KT